Tiempo atmosférico en la estación meteorológica de Gijón, Campus, Asturias (26 m.)



Fecha
DESCASC
Temp. máxima en grados centígrados (hora)
DESCASC
Temp. mínima en grados centígrados (hora)
DESCASC
Temp. media en grados centígrados
DESCASC
Racha de viento máxima en m/sg (hora)
DESCASC
Velocidad máxima media en intervalos de 10 minutos(hora)
DESCASC
Precipitaciones diarias en mm
DESCASC
Precipitaciones de 00:00 a 06:00 en mm
DESCASC
Precipitaciones de 06:00 a 12:00 en mm
DESCASC
Precipitaciones de 12:00 a 18:00 en mm
DESCASC
Precipitaciones de 18:00 a 24:00 en mm
DESCASC
30-11-2020 15.6 (14:30) 5.5 (03:00) 10.6 6.39 (15:20) 3.33 (15:30) 0 0 0 0 0
29-11-2020 17.8 (15:00) 3.8 (00:00) 10.8 4.72 (15:40) 3.33 (15:40) 0 0 0 0 0
28-11-2020 17.3 (15:20) 3.3 (00:00) 10.3 3.89 (15:50) 2.5 (15:50) 0 0 0 0 0
27-11-2020 16.5 (13:10) 4.6 (00:00) 10.5 3.89 (14:10) 2.5 (14:10) 0 0 0 0 0
26-11-2020 17.1 (14:00) 6.9 (00:00) 12 4.44 (15:30) 2.22 (15:30) 0.2 0 0.2 0 0
25-11-2020 16.6 (00:20) 10 (00:00) 13.3 6.67 (00:20) 3.61 (03:20) 5.4 0 0 5.4 0
24-11-2020 18.9 (15:40) 3.7 (00:00) 11.3 8.61 (23:40) 3.33 (23:10) 0 0 0 0 0
23-11-2020 16.8 (14:50) 2.4 (00:00) 9.6 5.28 (18:30) 2.78 (18:30) 0 0 0 0 0
22-11-2020 16.6 (15:20) 2.5 (00:00) 9.6 3.61 (14:00) 2.78 (14:10) 0 0 0 0 0
21-11-2020 15.4 (14:50) 3.6 (00:00) 9.5 6.94 (16:00) 3.89 (16:10) 0 0 0 0 0
20-11-2020 15.9 (14:20) 5.8 (00:00) 10.8 8.06 (15:40) 4.72 (13:30) 0 0 0 0 0
19-11-2020 16.4 (01:10) 11.4 (00:00) 13.9 7.78 (02:00) 5.28 (01:50) 3.8 2.6 1.2 0 0
18-11-2020 23.6 (14:40) 7.2 (00:00) 15.4 5 (15:20) 2.78 (15:30) 0 0 0 0 0
17-11-2020 19.4 (14:50) 3.9 (00:00) 11.6 2.78 (19:40) 2.22 (23:10) 0 0 0 0 0
16-11-2020 16.9 (14:20) 6.5 (00:00) 11.7 5 (15:20) 2.78 (14:10) 0 0 0 0 0
15-11-2020 16 (11:10) 11 (00:00) 13.5 9.44 (12:30) 4.44 (10:50) 6.6 0 0 6.6 0
14-11-2020 22.3 (14:20) 6 (00:00) 14.1 6.94 (19:50) 3.33 (20:00) 0 0 0 0 0
13-11-2020 20.7 (16:00) 8 (00:00) 14.4 6.11 (16:10) 3.33 (15:00) 0 0 0 0 0
12-11-2020 21.6 (14:50) 11.5 (00:00) 16.6 6.11 (15:10) 3.33 (15:10) 0 0 0 0 0
11-11-2020 20.6 (13:50) 6.1 (00:00) 13.4 3.89 (14:00) 2.5 (14:00) 0 0 0 0 0
10-11-2020 17.3 (13:50) 7.6 (00:00) 12.4 4.72 (14:10) 3.33 (14:20) 0 0 0 0 0
09-11-2020 17.5 (15:50) 8.6 (00:00) 13.1 3.33 (07:50) 2.22 (13:00) 0.4 0 0 0.2 0.2
08-11-2020 22.1 (11:20) 9.3 (00:00) 15.7 9.17 (13:00) 5 (12:40) 0 0 0 0 0
07-11-2020 20.5 (15:20) 9.9 (00:00) 15.2 5 (14:00) 2.78 (13:30) 0.2 0.2 0 0 0
06-11-2020 24.8 (14:00) 8.1 (00:00) 16.4 10 (22:10) 5 (21:50) 2.4 0 0 0 2.4
05-11-2020 14.5 (14:40) 8.4 (00:00) 11.4 13.61 (11:00) 6.67 (11:10) 0 0 0 0 0
04-11-2020 13.9 (15:00) 5.4 (00:00) 9.6 11.11 (19:10) 5.56 (19:10) 7.2 1.4 0 2.8 3
03-11-2020 14.3 (15:10) 6.9 (00:00) 10.6 5.83 (14:50) 3.61 (15:10) 2.8 0 2.8 0 0
02-11-2020 19 (10:30) 11 (00:00) 15 11.11 (10:50) 5.83 (11:00) 4.4 0 0 4 0.4

Gráficas

Temp. máximas Temp. mínimas Temp. medias Precipitaciones Rachas de viento máximas Velocidades máximas media en intervalos de 10 minutos

Datos horarios

Fecha y hora oficial Temperatura (ºC) Velocidad del viento (km/h) Dirección del viento Racha (km/h) Dirección de racha Precipitación (mm) Presión (hPa) Tendencia (hPa) Humedad (%)
2020-12-01 23:00:00 11 4 Noroeste 13 Noroeste 1 1021.2 -- 98
2020-12-01 22:00:00 11.3 7 Norte 11 Norte 0 1021.2 -- 95
2020-12-01 21:00:00 11.2 3 Sudeste 5 Sudeste 0 1021.3 -- 92
2020-12-01 20:00:00 11.5 0 Calma 5 Sudoeste 0 1021.7 -- 90
2020-12-01 19:00:00 11.4 0 Calma 5 Sudeste 0 1021.9 -- 90
2020-12-01 18:00:00 12 3 Sur 4 Sur 0 1021.8 -- 88
2020-12-01 17:00:00 13.2 2 Oeste 4 Sur 0 1022 -- 82
2020-12-01 16:00:00 13.7 0 Calma 6 Noroeste 0 1022 -- 76
2020-12-01 15:00:00 13.6 3 Noroeste 6 Noroeste 0 1022.1 -- 75
2020-12-01 14:00:00 13.3 3 Oeste 11 Oeste 0 1023.1 -- 71
2020-12-01 13:00:00 12.6 6 Noroeste 11 Norte 0 1023.5 -- 74
2020-12-01 12:00:00 10.8 3 Norte 6 Norte 0 1024.3 -- 90
2020-12-01 11:00:00 8.4 0 Calma 6 Norte 0 1024.7 -- 100
2020-12-01 10:00:00 5.6 0 Calma 6 Sudeste 0 1024.5 -- 100
2020-12-01 09:00:00 3.7 2 Sudeste 7 Sudeste 0 1024.1 -- 100
2020-12-01 08:00:00 3.9 4 Sudeste 6 Sudeste 0 1023.9 -- 100
2020-12-01 07:00:00 4.4 4 Sudeste 5 Sudeste 0 1023.4 -- 100
2020-12-01 06:00:00 5.4 2 Este 7 Sudeste 0 1023.6 -- 100
2020-12-01 05:00:00 5.2 5 Sudeste 7 Sudeste 0 1023.5 -- 100
2020-12-01 04:00:00 6.2 2 Sudeste 8 Sudeste 0 1023.6 -- 99
2020-12-01 03:00:00 7.1 6 Sudeste 8 Sudeste 0 1023.9 -- 99
2020-12-01 02:00:00 7.7 6 Sudeste 9 Sudeste 0 1024.1 -- 98
2020-12-01 01:00:00 9 3 Sudeste 6 Sudeste 0 1024.3 -- 98
2020-12-01 00:00:00 10.4 2 Norte 12 Nordeste 0 1024.2 -- 98
2020-11-30 23:00:00 9.8 5 Este 11 Este 0 1023.9 -- 98
2020-11-30 22:00:00 10.4 6 Este 12 Nordeste 0 1023.5 -- 93
2020-11-30 21:00:00 11.9 5 Nordeste 11 Nordeste 0 1022.5 -- 90
2020-11-30 20:00:00 12.8 5 Este 16 Este 0 1022.6 -- 88
2020-11-30 19:00:00 13.1 6 Este 13 Este 0 1022.3 -- 87
2020-11-30 18:00:00 13.3 6 Nordeste 21 Este 0 1021.8 -- 87
2020-11-30 17:00:00 13.9 9 Nordeste 19 Este 0 1021.4 -- 86
2020-11-30 16:00:00 14.5 9 Nordeste 23 Nordeste 0 1020.9 -- 84
2020-11-30 15:00:00 15.2 9 Este 19 Nordeste 0 1020.8 -- 75
2020-11-30 14:00:00 14.5 6 Nordeste 17 Nordeste 0 1021.1 -- 84
2020-11-30 13:00:00 14.1 4 Noroeste 7 Noroeste 0 1021.1 -- 85
2020-11-30 12:00:00 12.2 3 Oeste 7 Sur 0 1021.4 -- 87
2020-11-30 11:00:00 9.7 2 Noroeste 4 Este 0 1021.3 -- 99
2020-11-30 10:00:00 8.5 2 Sudoeste 4 Sudoeste 0 1020.8 -- 100
2020-11-30 09:00:00 8.3 3 Sudeste 5 Sur 0 1020.2 -- 100
2020-11-30 08:00:00 8.5 2 Norte 5 Norte 0 1019.9 -- 100
2020-11-30 07:00:00 8 2 Norte 6 Sudoeste 0 1019.3 -- 100
2020-11-30 06:00:00 7.3 0 Calma 9 Sudeste 0 1018.9 -- 100
2020-11-30 05:00:00 5.9 2 Sur 5 Este 0 1018.3 -- 100
2020-11-30 04:00:00 6 0 Calma 5 Sur 0 1018.2 -- 100
2020-11-30 03:00:00 5.5 3 Este 9 Sudeste 0 1017.7 -- 100
2020-11-30 02:00:00 5.7 4 Sur 6 Sudeste 0 1017.6 -- 100
2020-11-30 01:00:00 6.2 4 Sudeste 5 Sudeste 0 1017.2 -- 99
2020-11-30 00:00:00 6.7 2 Sudeste 7 Sudeste 0 1016.8 -- 99
2020-11-29 23:00:00 6.5 3 Sudeste 8 Sur 0 1016.5 -- 99
2020-11-29 22:00:00 6.8 4 Sudeste 7 Sudeste 0 1015.9 -- 99
2020-11-29 21:00:00 7.2 5 Sudeste 8 Sudeste 0 1015.4 -- 98
2020-11-29 20:00:00 8.1 6 Sudeste 8 Este 0 1015 -- 96
2020-11-29 19:00:00 9.8 4 Sudeste 7 Sudeste 0 1014.2 -- 94
2020-11-29 18:00:00 12.3 4 Sudeste 7 Noroeste 0 1013.8 -- 89
2020-11-29 17:00:00 15.2 5 Noroeste 13 Nordeste 0 1012.7 -- 78
2020-11-29 16:00:00 16.9 8 Nordeste 17 Norte 0 1012.2 -- 70
2020-11-29 15:00:00 17.8 3 Noroeste 5 Noroeste 0 1011.8 -- 63
2020-11-29 14:00:00 16.6 2 Noroeste 5 Norte 0 1011.7 -- 64
2020-11-29 13:00:00 15.8 2 Nordeste 7 Norte 0 1011.7 -- 68
2020-11-29 12:00:00 12.4 4 Noroeste 8 Noroeste 0 1011.8 -- 78
2020-11-29 11:00:00 9.1 2 Sudeste 5 Sudeste 0 1011.1 -- 99
2020-11-29 10:00:00 6 3 Sudeste 7 Sudeste 0 1010.2 -- 100
2020-11-29 09:00:00 4 4 Sudeste 8 Sudeste 0 1009.2 -- 100
2020-11-29 08:00:00 4 4 Sudeste 7 Sudeste 0 1008.6 -- 100
2020-11-29 07:00:00 3.8 4 Sudeste 6 Sur 0 1007.8 -- 100
2020-11-29 06:00:00 3.8 4 Sudeste 7 Sudeste 0 1007.3 -- 100
2020-11-29 05:00:00 3.9 4 Sudeste 7 Sudeste 0 1006.6 -- 100
2020-11-29 04:00:00 4.4 4 Sudoeste 10 Sudeste 0 1006.4 -- 100
2020-11-29 03:00:00 4.4 4 Sudeste 8 Sudeste 0 1005.9 -- 99
2020-11-29 02:00:00 4.7 5 Sudeste 9 Sudeste 0 1005.7 -- 99
2020-11-29 01:00:00 5 5 Sudeste 10 Sudeste 0 1005.2 -- 99
2020-11-29 00:00:00 5.6 3 Sur 8 Sudeste 0 1004.7 -- 99
2020-11-28 23:00:00 6.1 4 Sudeste 12 Sudeste 0 1004.2 -- 98
2020-11-28 22:00:00 6.8 5 Sudeste 11 Sur 0 1003.8 -- 97
2020-11-28 21:00:00 7.7 5 Sudeste 9 Sudeste 0 1003.1 -- 96
2020-11-28 20:00:00 8.7 5 Sudeste 7 Sudeste 0 1002.6 -- 95
2020-11-28 19:00:00 9.9 4 Sudeste 6 Sudoeste 0 1002 -- 92
2020-11-28 18:00:00 12.6 3 Sur 9 Este 0 1001.3 -- 84
2020-11-28 17:00:00 15.4 4 Este 14 Nordeste 0 1001 -- 70
2020-11-28 16:00:00 16.8 6 Nordeste 14 Norte 0 1000.6 -- 67
2020-11-28 15:00:00 16.8 8 Norte 13 Nordeste 0 1000.3 -- 66
2020-11-28 14:00:00 16.6 8 Norte 12 Norte 0 1000.7 -- 70
2020-11-28 13:00:00 15.1 3 Nordeste 5 Noroeste 0 1001.4 -- 70
2020-11-28 12:00:00 12.6 2 Norte 4 Norte 0 1002 -- 85
2020-11-28 11:00:00 9.4 0 Calma 7 Este 0 1002.3 -- 100
2020-11-28 10:00:00 5.3 5 Sudeste 8 Sudeste 0 1002.5 -- 100
2020-11-28 09:00:00 3.3 3 Sudeste 5 Sur 0 1002.1 -- 100
2020-11-28 08:00:00 3.7 6 Sudeste 10 Este 0 1001.9 -- 100
2020-11-28 07:00:00 3.5 5 Sudeste 7 Sudeste 0 1001.7 -- 100
2020-11-28 06:00:00 3.8 4 Sudeste 8 Sudeste 0 1002.1 -- 100
2020-11-28 05:00:00 4 6 Sudeste 8 Sudeste 0 1002.5 -- 100
2020-11-28 04:00:00 4.3 2 Sudeste 7 Este 0 1003.1 -- 100
2020-11-28 03:00:00 4.5 4 Sudeste 7 Sudeste 0 1003.3 -- 100
2020-11-28 02:00:00 5.1 0 Calma 8 Sudeste 0 1003.9 -- 100
2020-11-28 01:00:00 5.5 6 Sudeste 10 Este 0 1004.3 -- 99
2020-11-28 00:00:00 6 3 Sudeste 8 Sudeste 0 1004.4 -- 99
2020-11-27 23:00:00 6.6 5 Sudeste 9 Sudeste 0 1005 -- 99
2020-11-27 22:00:00 6.8 5 Sudeste 9 Este 0 1005 -- 99
2020-11-27 21:00:00 7.4 5 Sudeste 6 Este 0 1005.3 -- 98
2020-11-27 20:00:00 8 4 Sudeste 7 Sudeste 0 1005.4 -- 98
2020-11-27 19:00:00 9.3 5 Este 8 Sudeste 0 1005.4 -- 96
2020-11-27 18:00:00 11.3 4 Sudeste 7 Sudeste 0 1005.3 -- 93
2020-11-27 17:00:00 13.6 2 Noroeste 6 Noroeste 0 1005.4 -- 89
2020-11-27 16:00:00 15.1 6 Noroeste 11 Noroeste 0 1005.5 -- 83
2020-11-27 15:00:00 14.8 5 Noroeste 14 Norte 0 1005.9 -- 85
2020-11-27 14:00:00 14.5 8 Norte 13 Noroeste 0 1006.2 -- 81
2020-11-27 13:00:00 16.4 3 Sur 7 Sudeste 0 1006.7 -- 70
2020-11-27 12:00:00 14.2 3 Sur 7 Oeste 0 1007.7 -- 75
2020-11-27 11:00:00 10.9 4 Sudeste 8 Sudeste 0 1008.1 -- 97
2020-11-27 10:00:00 7.2 4 Sudeste 7 Sudeste 0 1007.8 -- 100
2020-11-27 09:00:00 5 2 Sudeste 9 Sudeste 0 1007.5 -- 100
2020-11-27 08:00:00 4.6 3 Este 8 Sudeste 0 1007.7 -- 100
2020-11-27 07:00:00 5 2 Sudoeste 7 Sudeste 0 1007.4 -- 100
2020-11-27 06:00:00 5.2 3 Sur 7 Sudeste 0 1007.7 -- 100
2020-11-27 05:00:00 5.5 2 Nordeste 7 Sudeste 0 1007.8 -- 100
2020-11-27 04:00:00 6 4 Este 8 Sudeste 0 1008.1 -- 100
2020-11-27 03:00:00 6.5 3 Este 10 Sudeste 0 1008.1 -- 100
2020-11-27 02:00:00 6.5 5 Sudeste 9 Sudoeste 0 1008.2 -- 100
2020-11-27 01:00:00 6.8 3 Nordeste 10 Sudeste 0 1008.5 -- 100
2020-11-27 00:00:00 6.9 5 Sur 9 Sur 0 1008.5 -- 99
2020-11-26 23:00:00 7.3 4 Sudeste 6 Sudeste 0 1008.1 -- 99
2020-11-26 22:00:00 7.8 5 Sudeste 6 Sudeste 0 1008.3 -- 98
2020-11-26 21:00:00 8.7 2 Sudeste 7 Sudeste 0 1008 -- 98
2020-11-26 20:00:00 9.8 5 Sudeste 9 Sudeste 0 1007.9 -- 96
2020-11-26 19:00:00 11.1 6 Sudeste 8 Sudeste 0 1007.8 -- 94
2020-11-26 18:00:00 13.7 2 Sudeste 6 Norte 0 1007.4 -- 86
2020-11-26 17:00:00 15.8 0 Calma 10 Noroeste 0 1007.1 -- 76
2020-11-26 16:00:00 16.3 6 Noroeste 16 Norte 0 1006.8 -- 77
2020-11-26 15:00:00 16.6 5 Norte 10 Norte 0 1006.6 -- 77
2020-11-26 14:00:00 16.9 5 Nordeste 11 Norte 0 1006.6 -- 72
2020-11-26 13:00:00 15.7 4 Noroeste 8 Noroeste 0 1006.6 -- 74
2020-11-26 12:00:00 14.1 3 Oeste 6 Noroeste 0 1007 -- 88
2020-11-26 11:00:00 11.5 3 Sudeste 6 Este 0 1007 -- 100
2020-11-26 10:00:00 9.5 0 Calma 7 Sur 0 1007 -- 100
2020-11-26 09:00:00 8.9 4 Sur 8 Sudoeste 0 1006.2 -- 100
2020-11-26 08:00:00 9.1 3 Oeste 8 Norte 0 1006.1 -- 100
2020-11-26 07:00:00 8.7 4 Sudeste 8 Nordeste 0.2 1005.8 -- 100
2020-11-26 06:00:00 8.6 3 Sudeste 6 Sudeste 0 1005.8 -- 100
2020-11-26 05:00:00 9 3 Nordeste 6 Norte 0 1005.7 -- 100
2020-11-26 04:00:00 9.3 3 Sur 6 Norte 0 1005.7 -- 100
2020-11-26 03:00:00 9.5 2 Sudeste 5 Sudeste 0 1005.7 -- 100
2020-11-26 02:00:00 10 5 Sudeste 8 Sudeste 0 1005.8 -- 99
2020-11-26 01:00:00 10.5 2 Este 8 Este 0 1006.1 -- 99
2020-11-26 00:00:00 11.3 4 Este 9 Este 0 1006.1 -- 98
2020-11-25 23:00:00 11.6 0 Calma 11 Este 0 1006.5 -- 98
2020-11-25 22:00:00 11.5 3 Este 6 Sudeste 0 1006.7 -- 98
2020-11-25 21:00:00 11.8 2 Sur 6 Sur 0 1007.2 -- 98
2020-11-25 20:00:00 12.3 0 Calma 13 Este 0 1007.4 -- 97
2020-11-25 19:00:00 11.9 3 Sudeste 5 Sur 0 1007.5 -- 98
2020-11-25 18:00:00 12.1 3 Este 5 Este 0.4 1007.6 -- 97
2020-11-25 17:00:00 12.4 2 Sudeste 5 Este 1 1007.6 -- 96
2020-11-25 16:00:00 12.6 3 Nordeste 5 Sudeste 1.2 1007.6 -- 96
2020-11-25 15:00:00 12.7 0 Calma 13 Norte 2.2 1007.8 -- 94
2020-11-25 14:00:00 13.3 6 Norte 9 Norte 0.4 1008.1 -- 91
2020-11-25 13:00:00 13.6 2 Norte -- -- -- 1008.6 -- 91
2020-11-25 12:00:00 13.8 7 Noroeste 12 Noroeste 0 1009.1 -- 90
2020-11-25 11:00:00 12.6 2 Sudeste 5 Este 0 1009.1 -- 93
2020-11-25 10:00:00 10.7 3 Sudeste 5 Sudeste 0 1009.2 -- 98
2020-11-25 09:00:00 10.1 3 Oeste 5 Este 0 1008.7 -- 97
2020-11-25 08:00:00 10.4 0 Calma 4 Sudoeste 0 1008.5 -- 96
2020-11-25 07:00:00 10.5 2 Oeste 5 Este 0 1008.2 -- 95
2020-11-25 06:00:00 10.7 5 Sudeste 8 Sudeste 0 1008 -- 94
2020-11-25 05:00:00 11.2 5 Este 8 Este 0 1008.3 -- 87
2020-11-25 04:00:00 12.6 4 Sur 20 Noroeste 0 1008.7 -- 73
2020-11-25 03:00:00 11.6 4 Noroeste 9 Sudeste 0 1008.2 -- 72
2020-11-25 02:00:00 13.8 3 Norte 9 Noroeste 0 1008.3 -- 59
2020-11-25 01:00:00 16.3 6 Sur 24 Sur 0 1008.3 -- 46
2020-11-25 00:00:00 16.5 9 Sur 31 Sudeste 0 1008.9 -- 45
2020-11-24 23:00:00 14.8 10 Sur 22 Sur 0 1009.2 -- 52
2020-11-24 22:00:00 7 4 Norte 9 Este 0 1010.1 -- 94
2020-11-24 21:00:00 7 5 Sudeste 8 Sudeste 0 1010.7 -- 94
2020-11-24 20:00:00 8.6 2 Nordeste 8 Sudeste 0 1011 -- 90
2020-11-24 19:00:00 10 6 Sudeste 8 Sudeste 0 1011.4 -- 87
2020-11-24 18:00:00 13.2 5 Sudeste 6 Sudeste 0 1011.6 -- 82
2020-11-24 17:00:00 17.4 0 Calma 10 Norte 0 1011.8 -- 63
2020-11-24 16:00:00 18.2 5 Noroeste 7 Noroeste 0 1012.2 -- 59
2020-11-24 15:00:00 18.2 4 Nordeste 10 Sur 0 1012.9 -- 54
2020-11-24 14:00:00 18 2 Nordeste 9 Oeste 0 1014 -- 60
2020-11-24 13:00:00 17.1 3 Oeste 7 Sur 0 1014.9 -- 59
2020-11-24 12:00:00 15.8 3 Sudeste 7 Sudeste 0 1016.2 -- 76
2020-11-24 11:00:00 11.2 0 Calma 5 Norte 0 1017 -- 91
2020-11-24 10:00:00 7.4 0 Calma 9 Noroeste 0 1017.2 -- 100
2020-11-24 09:00:00 4.7 5 Sudeste 7 Sudeste 0 1017.2 -- 100
2020-11-24 08:00:00 4.4 3 Sudeste 9 Sudeste 0 1017 -- 100
2020-11-24 07:00:00 4 5 Sudeste 11 Sudeste 0 1016.6 -- 100
2020-11-24 06:00:00 3.9 5 Sudeste 9 Sudeste 0 1016.6 -- 100
2020-11-24 05:00:00 4.4 4 Sudeste 9 Sudeste 0 1016.7 -- 100
2020-11-24 04:00:00 4.7 6 Sudeste 9 Sudeste 0 1017.4 -- 99
2020-11-24 03:00:00 4.7 6 Sudeste 8 Sudeste 0 1017.9 -- 99
2020-11-24 02:00:00 5.1 6 Sudeste 8 Este 0 1018.5 -- 99
2020-11-24 01:00:00 5.2 4 Sudeste 6 Sudeste 0 1019.4 -- 98
2020-11-24 00:00:00 5.5 4 Sudeste 8 Sudeste 0 1020 -- 97
2020-11-23 23:00:00 6.3 3 Sudeste 6 Este 0 1020.8 -- 96
2020-11-23 22:00:00 7 6 Sudeste 8 Sudeste 0 1021.2 -- 95
2020-11-23 21:00:00 8.4 2 Sur 10 Este 0 1021.5 -- 90
2020-11-23 20:00:00 10.6 5 Este 9 Este 0 1021.7 -- 84
2020-11-23 19:00:00 11.9 4 Este 19 Este 0 1022 -- 80
2020-11-23 18:00:00 13 8 Este 15 Este 0 1021.8 -- 77
2020-11-23 17:00:00 14.7 4 Este 10 Este 0 1021.8 -- 70
2020-11-23 16:00:00 16.4 8 Nordeste 14 Norte 0 1021.8 -- 68
2020-11-23 15:00:00 16.6 8 Nordeste 15 Norte 0 1022.3 -- 66
2020-11-23 14:00:00 16.2 6 Nordeste 13 Norte 0 1023 -- 68
2020-11-23 13:00:00 15 8 Norte 15 Norte 0 1024.1 -- 74
2020-11-23 12:00:00 12.6 3 Oeste 5 Norte 0 -- -- 76
2020-11-23 11:00:00 10 2 Este 5 Este 0 -- -- 90
2020-11-23 10:00:00 6.1 3 Sudeste 6 Sudeste 0 -- -- 100
2020-11-23 09:00:00 2.6 4 Sudeste 6 Este 0 -- -- 100
2020-11-23 08:00:00 2.5 3 Sudeste 5 Sudeste 0 -- -- 100
2020-11-23 07:00:00 2.5 5 Sudeste 8 Sudeste 0 -- -- 100
2020-11-23 06:00:00 2.8 5 Sudeste 8 Sudeste 0 -- -- 100
2020-11-23 05:00:00 3.1 3 Sudeste 6 Sudeste 0 -- -- 100
2020-11-23 04:00:00 3.4 5 Sudeste 6 Sudeste 0 -- -- 100
2020-11-23 03:00:00 3.7 3 Sudeste 6 Sudeste 0 -- -- 99
2020-11-23 02:00:00 4 4 Sudeste 6 Sudeste 0 -- -- 99
2020-11-23 01:00:00 4.5 4 Este 6 Sudeste 0 -- -- 99
2020-11-23 00:00:00 4.9 4 Sudeste 6 Sudeste 0 -- -- 98
2020-11-22 23:00:00 5.6 5 Sudeste 8 Sudeste 0 -- -- 98
2020-11-22 22:00:00 6.3 3 Noroeste 8 Sudeste 0 -- -- 98
2020-11-22 21:00:00 6.7 6 Sudeste 8 Sudeste 0 -- -- 97
2020-11-22 20:00:00 7.9 6 Sudeste 10 Sudeste 0 -- -- 95
2020-11-22 19:00:00 9.5 6 Sudeste 7 Sudeste 0 -- -- 93
2020-11-22 18:00:00 12.6 2 Sur 8 Norte 0 -- -- 86
2020-11-22 17:00:00 15 5 Norte 10 Norte 0 -- -- 79
2020-11-22 16:00:00 16.2 7 Norte 10 Nordeste 0 -- -- 70
2020-11-22 15:00:00 16.4 7 Norte 13 Norte 0 -- -- 70
2020-11-22 14:00:00 16.2 8 Noroeste 13 Norte 0 -- -- 69
2020-11-22 13:00:00 15.4 3 Noroeste 7 Noroeste 0 -- -- 66
2020-11-22 12:00:00 13.3 2 Oeste 4 Nordeste 0 -- -- 76
2020-11-22 11:00:00 10.2 3 Nordeste 4 Oeste 0 -- -- 89
2020-11-22 10:00:00 6.5 0 Calma 6 Sudeste 0 -- -- 100
2020-11-22 09:00:00 2.9 6 Sudeste 7 Sudeste 0 -- -- 100
2020-11-22 08:00:00 2.7 3 Sudeste 6 Sudeste 0 -- -- 100
2020-11-22 07:00:00 2.9 4 Sudeste 9 Este 0 -- -- 100
2020-11-22 06:00:00 2.8 4 Sudeste 7 Sudeste 0 -- -- 100
2020-11-22 05:00:00 3.1 3 Este 6 Sudeste 0 -- -- 99
2020-11-22 04:00:00 3.4 4 Sudeste 7 Sudeste 0 1022.8 -- 99
2020-11-22 03:00:00 3.4 5 Sudeste 8 Este 0 1022.6 -- 99
2020-11-22 02:00:00 3.4 3 Sudeste 7 Sudeste 0 1022.7 -- 99
2020-11-22 01:00:00 3.8 5 Sudeste 9 Sudeste 0 1022.9 -- 98
2020-11-22 00:00:00 4.2 0 Calma 7 Este 0 1022.8 -- 97
2020-11-21 23:00:00 4.8 4 Sudeste 8 Sudeste 0 1022.8 -- 96
2020-11-21 22:00:00 5.5 4 Sudeste 6 Sudeste 0 1023 -- 93
2020-11-21 21:00:00 6.9 3 Sur 9 Sudeste 0 1023.2 -- 90
2020-11-21 20:00:00 9.2 4 Sur 13 Este 0 1023.2 -- 83
2020-11-21 19:00:00 10.9 6 Este 13 Este 0 1023.2 -- 76
2020-11-21 18:00:00 12 7 Este 19 Este 0 1023 -- 72
2020-11-21 17:00:00 13.7 8 Este 22 Este 0 1023.1 -- 65
2020-11-21 16:00:00 14.8 12 Este 25 Este 0 1023 -- 54
2020-11-21 15:00:00 15.4 10 Este 21 Sudeste 0 1023.5 -- 48
2020-11-21 14:00:00 14.8 11 Este 23 Este 0 1024.3 -- 49
2020-11-21 13:00:00 14.4 11 Este 22 Este 0 1025 -- 50
2020-11-21 12:00:00 13.4 10 Este 18 Este 0 1025.8 -- 54
2020-11-21 11:00:00 10.1 4 Oeste 6 Sudoeste 0 1026.1 -- 80
2020-11-21 10:00:00 7.1 2 Noroeste 6 Este 0 1026.1 -- 100
2020-11-21 09:00:00 3.9 2 Sur 7 Sudeste 0 1026 -- 100
2020-11-21 08:00:00 4 3 Noroeste 5 Oeste 0 1026.2 -- 100
2020-11-21 07:00:00 4 3 Sudoeste 7 Sudeste 0 1026.3 -- 99
2020-11-21 06:00:00 4.2 3 Sudeste 6 Sudeste 0 1026.3 -- 98
2020-11-21 05:00:00 4.9 2 Sudeste 7 Sudeste 0 1026.3 -- 98
2020-11-21 04:00:00 5.4 5 Este 9 Sudeste 0 1026.8 -- 97
2020-11-21 03:00:00 6.4 2 Sudeste 8 Sur 0 1026.9 -- 95
2020-11-21 02:00:00 7.5 3 Norte 6 Sudeste 0 1027.3 -- 94
2020-11-21 01:00:00 7.3 3 Este 6 Este 0 1028.1 -- 93
2020-11-21 00:00:00 7.9 0 Calma 4 Este 0 1028.2 -- 91
2020-11-20 23:00:00 9.4 3 Sudeste 10 Este 0 1028.7 -- 86
2020-11-20 22:00:00 10.1 3 Nordeste 9 Este 0 1029.1 -- 85
2020-11-20 21:00:00 11 5 Este 14 Este 0 1029.5 -- 81
2020-11-20 20:00:00 10.9 4 Este 12 Este 0 1030.1 -- 83
2020-11-20 19:00:00 11.7 5 Este 20 Este 0 1030.3 -- 78
2020-11-20 18:00:00 12.8 10 Este 23 Nordeste 0 1030 -- 70
2020-11-20 17:00:00 13.8 9 Este 28 Sudeste 0 1029.5 -- 63
2020-11-20 16:00:00 14.7 14 Este 29 Este 0 1029.9 -- 65
2020-11-20 15:00:00 15.4 12 Nordeste 23 Este 0 1030.5 -- 59
2020-11-20 14:00:00 15.8 11 Este 27 Este 0 1030.6 -- 53
2020-11-20 13:00:00 15.4 12 Este 23 Sudeste 0 1031.9 -- 55
2020-11-20 12:00:00 15 12 Este 21 Este 0 1032.7 -- 57
2020-11-20 11:00:00 13.9 7 Sudeste 13 Este 0 1032.7 -- 66
2020-11-20 10:00:00 9.3 0 Calma 4 Sur 0 1032.9 -- 95
2020-11-20 09:00:00 6 0 Calma 5 Sudeste 0 1033.2 -- 100
2020-11-20 08:00:00 5.8 0 Calma 4 Oeste 0 1033.2 -- 98
2020-11-20 07:00:00 6.4 0 Calma 6 Sudeste 0 1033.1 -- 97
2020-11-20 06:00:00 6.9 3 Sudeste 5 Sudeste 0 1033.3 -- 95
2020-11-20 05:00:00 8.3 2 Sudeste 7 Este 0 1033.3 -- 92
2020-11-20 04:00:00 10.4 5 Este 13 Este 0 1033.7 -- 83
2020-11-20 03:00:00 10.9 8 Sudeste 13 Este 0 1033.5 -- 82
2020-11-20 02:00:00 11.1 8 Este 13 Este 0 1034 -- 82
2020-11-20 01:00:00 11.8 8 Este 13 Este 0 1034.9 -- 81
2020-11-20 00:00:00 11.8 6 Este 13 Este 0 1035 -- 84
2020-11-19 23:00:00 11.6 5 Este 9 Este 0 1035.2 -- 87
2020-11-19 22:00:00 11.6 3 Sudeste 15 Este 0 1034.9 -- 90
2020-11-19 21:00:00 11.5 8 Este 17 Nordeste 0 1035.1 -- 91
2020-11-19 20:00:00 11.6 8 Este 15 Nordeste 0 1035 -- 93
2020-11-19 19:00:00 11.9 4 Este 13 Este 0 1035 -- 89
2020-11-19 18:00:00 12.1 6 Este 14 Este 0 1034.8 -- 90
2020-11-19 17:00:00 12.2 7 Este 19 Nordeste 0 1034.7 -- 91
2020-11-19 16:00:00 13.3 9 Este 19 Este 0 1034.8 -- 80
2020-11-19 15:00:00 14 6 Nordeste 17 Este 0 1034.4 -- 77
2020-11-19 14:00:00 14.2 9 Nordeste 16 Nordeste 0 1034.2 -- 78
2020-11-19 13:00:00 13.6 9 Este 14 Sudeste 0 1033.8 -- 83
2020-11-19 12:00:00 13 6 Este 14 Este 0 1034.7 -- 91
2020-11-19 11:00:00 12.3 8 Este 15 Nordeste 0 1034.5 -- 94
2020-11-19 10:00:00 11.9 6 Nordeste 13 Nordeste 0.2 1034 -- 97
2020-11-19 09:00:00 12.1 6 Nordeste 13 Nordeste 0.4 1033.9 -- 97
2020-11-19 08:00:00 12.1 5 Este 11 Sudeste 0 1033.5 -- 98
2020-11-19 07:00:00 12.2 4 Nordeste 18 Norte 0.6 1032.2 -- 98
2020-11-19 06:00:00 12.7 9 Norte 17 Nordeste 0.4 1031.4 -- 99
2020-11-19 05:00:00 13.3 8 Norte 12 Norte 0.6 1030.5 -- 98
2020-11-19 04:00:00 13.6 7 Norte 14 Nordeste 0.4 1030.2 -- 98
2020-11-19 03:00:00 14 8 Norte 27 Norte 1.2 1029.4 -- 97
2020-11-19 02:00:00 14.7 18 Norte 28 Nordeste 0 1028.6 -- 96
2020-11-19 01:00:00 16.3 5 Noroeste 12 Noroeste 0 1027.5 -- 92
2020-11-19 00:00:00 15.6 3 Noroeste 8 Oeste 0 1026.8 -- 96
2020-11-18 23:00:00 13.6 4 Sudeste 9 Sudeste 0 1026.9 -- 92
2020-11-18 22:00:00 11.5 7 Sudeste 10 Sudeste 0 1026.2 -- 91
2020-11-18 21:00:00 11.6 3 Sudeste 8 Sudeste 0 1024.1 -- 91
2020-11-18 20:00:00 12.4 5 Sudeste 8 Sudeste 0 1023.1 -- 88
2020-11-18 19:00:00 14.4 4 Sur 7 Sudeste 0 1022.3 -- 83
2020-11-18 18:00:00 18.5 4 Este 8 Este 0 1021.3 -- 67
2020-11-18 17:00:00 21.9 5 Este 15 Este 0 1020.6 -- 51
2020-11-18 16:00:00 23.1 8 Este 18 Este 0 1020.2 -- 48
2020-11-18 15:00:00 23.5 6 Este 15 Este 0 1020 -- 51
2020-11-18 14:00:00 22.2 4 Oeste 8 Oeste 0 1019.9 -- 53
2020-11-18 13:00:00 21 2 Oeste 7 Oeste 0 1020.1 -- 59
2020-11-18 12:00:00 18.9 2 Norte 8 Sudeste 0 1020.3 -- 63
2020-11-18 11:00:00 15.8 3 Sudeste 9 Noroeste 0 1020.1 -- 75
2020-11-18 10:00:00 11.2 9 Sudeste 12 Sudeste 0 1019.7 -- 99
2020-11-18 09:00:00 8.3 4 Este 10 Sudeste 0 1019.2 -- 100
2020-11-18 08:00:00 7.6 6 Sudeste 9 Sudeste 0 1018.4 -- 99
2020-11-18 07:00:00 8 5 Sudeste 10 Sudeste 0 1017.8 -- 100
2020-11-18 06:00:00 7.8 6 Sudeste 9 Sudeste 0 1017.5 -- 100
2020-11-18 05:00:00 8.1 5 Sudeste 9 Sudeste 0 1017.2 -- 100
2020-11-18 04:00:00 8.1 6 Sudeste 10 Sudeste 0 1016.9 -- 100
2020-11-18 03:00:00 7.6 6 Sudeste 10 Sudeste 0 1016.7 -- 100
2020-11-18 02:00:00 7.3 7 Sudeste 10 Sudeste 0 1017 -- 100
2020-11-18 01:00:00 7.5 6 Sudeste 9 Sudeste 0 1017.4 -- 99
2020-11-18 00:00:00 7.8 4 Sudeste 9 Sudeste 0 1017.6 -- 99
2020-11-17 23:00:00 8.2 6 Sudeste 8 Sudeste 0 1017.8 -- 98
2020-11-17 22:00:00 8.6 6 Sudeste 10 Sudeste 0 1017.7 -- 97
2020-11-17 21:00:00 9.1 4 Sudeste 10 Sudeste 0 1018 -- 96
2020-11-17 20:00:00 10.2 5 Sudeste 10 Sudeste 0 1018 -- 95
2020-11-17 19:00:00 11.6 6 Sudeste 9 Sudeste 0 1017.9 -- 91
2020-11-17 18:00:00 14.9 2 Sur 8 Oeste 0 1018 -- 83
2020-11-17 17:00:00 17.5 5 Oeste 9 Oeste 0 1018 -- 68
2020-11-17 16:00:00 18.7 4 Oeste 9 Noroeste 0 1017.9 -- 58
2020-11-17 15:00:00 19 7 Noroeste 9 Noroeste 0 1018.2 -- 56
2020-11-17 14:00:00 18.5 3 Oeste 8 Noroeste 0 1018.4 -- 56
2020-11-17 13:00:00 16.8 2 Oeste 7 Sudoeste 0 1019.4 -- 61
2020-11-17 12:00:00 15.1 2 Sudoeste 6 Oeste 0 1020.2 -- 66
2020-11-17 11:00:00 11.8 0 Calma 3 Norte 0 1020.7 -- 85
2020-11-17 10:00:00 8.3 0 Calma 5 Sudeste 0 1021.1 -- 100
2020-11-17 09:00:00 4.6 3 Sudeste 8 Sudeste 0 1021.1 -- 100
2020-11-17 08:00:00 4 5 Sudeste 6 Sudeste 0 1020.9 -- 100
2020-11-17 07:00:00 4.2 5 Sudeste 9 Sudeste 0 1020.7 -- 100
2020-11-17 06:00:00 4.5 0 Calma 8 Sudeste 0 1020.8 -- 100
2020-11-17 05:00:00 4.7 6 Sudeste 8 Sudeste 0 1021 -- 100
2020-11-17 04:00:00 5.1 4 Sudeste 6 Sudeste 0 1021.4 -- 99
2020-11-17 03:00:00 5.3 4 Sudeste 6 Este 0 1021.6 -- 100
2020-11-17 02:00:00 5.7 3 Norte 5 Sudeste 0 1022.3 -- 99
2020-11-17 01:00:00 6.2 0 Calma 9 Sudeste 0 1022.9 -- 99
2020-11-17 00:00:00 6.5 4 Sur 5 Sudeste 0 1023.3 -- 98
2020-11-16 23:00:00 7.1 2 Este 5 Este 0 1023.3 -- 98
2020-11-16 22:00:00 7.6 4 Sudeste 6 Sudeste 0 1023.4 -- 96
2020-11-16 21:00:00 8.3 3 Sudeste 6 Este 0 1023.2 -- 95
2020-11-16 20:00:00 9.6 4 Este 7 Este 0 1023 -- 93
2020-11-16 19:00:00 10.6 5 Sudeste 6 Sudeste 0 1022.8 -- 90
2020-11-16 18:00:00 13.7 3 Este 9 Nordeste 0 1022.9 -- 76
2020-11-16 17:00:00 15.2 6 Este 14 Este 0 1022.6 -- 66
2020-11-16 16:00:00 16.2 6 Nordeste 18 Nordeste 0 1022.6 -- 63
2020-11-16 15:00:00 16.4 8 Nordeste 17 Norte 0 1022.2 -- 60
2020-11-16 14:00:00 16.4 9 Norte 15 Norte 0 1022.3 -- 60
2020-11-16 13:00:00 16.4 4 Noroeste 11 Oeste 0 1022.5 -- 61
2020-11-16 12:00:00 16.1 4 Noroeste 10 Sur 0 1023 -- 58
2020-11-16 11:00:00 14.6 3 Sur 5 Sudeste 0 1022.7 -- 76
2020-11-16 10:00:00 12 0 Calma 3 Sudeste 0 1023 -- 92
2020-11-16 09:00:00 10.7 0 Calma 4 Norte 0 1022.5 -- 98
2020-11-16 08:00:00 10 2 Sudeste 6 Sudeste 0 1021.7 -- 99
2020-11-16 07:00:00 9.4 4 Sudeste 5 Sudeste 0 1021.7 -- 98
2020-11-16 06:00:00 9.2 0 Calma 6 Este 0 1021.1 -- 97
2020-11-16 05:00:00 10.5 3 Este 5 Este 0 1020.4 -- 94
2020-11-16 04:00:00 12 2 Sudeste 7 Sudoeste 0 1020.8 -- 88
2020-11-16 03:00:00 12.2 0 Calma 5 Sur 0 1020.6 -- 88
2020-11-16 02:00:00 12.4 3 Sur 7 Sur 0 1019.8 -- 87
2020-11-16 01:00:00 12.7 2 Oeste 8 Sur 0 1020 -- 88
2020-11-16 00:00:00 12.9 3 Sudoeste 13 Sudoeste 0 1019.2 -- 87
2020-11-15 23:00:00 12.7 5 Sur 10 Sudoeste 0 1019.2 -- 90
2020-11-15 22:00:00 12.8 4 Sur 14 Sur 0 1018.6 -- 91
2020-11-15 21:00:00 12.5 8 Sur 14 Sur 0 1017.7 -- 94
2020-11-15 20:00:00 12.6 6 Sur 12 Sur 0 1017.1 -- 95
2020-11-15 19:00:00 12.8 6 Sudoeste 26 Noroeste 0 1016.2 -- 93
2020-11-15 18:00:00 12.9 13 Noroeste 26 Oeste 3 1015.4 -- 95
2020-11-15 17:00:00 13.8 7 Oeste 33 Noroeste 0.2 1014.3 -- 95
2020-11-15 16:00:00 14.7 9 Oeste 27 Oeste 2.4 1013.4 -- 93
2020-11-15 15:00:00 14.8 12 Oeste 31 Oeste 0.6 1012.6 -- 91
2020-11-15 14:00:00 14.7 8 Sudoeste 30 Norte 0.2 1012.1 -- 90
2020-11-15 13:00:00 14.9 11 Oeste 34 Noroeste 0.2 1011.6 -- 92
2020-11-15 12:00:00 15.7 4 Oeste 25 Oeste 0 1010.8 -- 92
2020-11-15 11:00:00 15.8 11 Noroeste 30 Norte 0 1009.8 -- 93
2020-11-15 10:00:00 14.6 4 Norte 8 Sudeste 0 1008.3 -- 90
2020-11-15 09:00:00 13.7 2 Sur 6 Sudeste 0 1007.2 -- 92
2020-11-15 08:00:00 13.5 4 Sudeste 10 Sudeste 0 1006.7 -- 91
2020-11-15 07:00:00 12.6 5 Sudeste 10 Sudeste 0 1006.8 -- 94
2020-11-15 06:00:00 11.9 3 Norte 8 Sudeste 0 1006.8 -- 95
2020-11-15 05:00:00 11.5 5 Sudeste 9 Sudeste 0 1006.7 -- 93
2020-11-15 04:00:00 11.1 5 Sudeste 10 Este 0 1007.8 -- 90
2020-11-15 03:00:00 11.2 4 Sudeste 12 Sur 0 1008 -- 88
2020-11-15 02:00:00 11.7 3 Sur 8 Este 0 1008.2 -- 86
2020-11-15 01:00:00 12.6 4 Sudeste 9 Sudeste 0 1008.6 -- 83
2020-11-15 00:00:00 14.2 6 Sudeste 8 Sudeste 0 1009.6 -- 76
2020-11-14 23:00:00 16.8 0 Calma 11 Sur 0 1009.7 -- 60
2020-11-14 22:00:00 19.7 8 Sur 19 Sur 0 1009.4 -- 47
2020-11-14 21:00:00 19.7 9 Sur 24 Sudoeste 0 1009.5 -- 48
2020-11-14 20:00:00 19.5 12 Sur 25 Sur 0 1009.7 -- 48
2020-11-14 19:00:00 18.6 8 Sur 17 Sur 0 1009.7 -- 53
2020-11-14 18:00:00 19.3 7 Sur 18 Sur 0 1009.5 -- 51
2020-11-14 17:00:00 21.6 6 Sur 16 Sur 0 1009.3 -- 46
2020-11-14 16:00:00 21.9 6 Este 12 Sudeste 0 1009.2 -- 41
2020-11-14 15:00:00 21.5 6 Nordeste 19 Norte 0 1009.4 -- 43
2020-11-14 14:00:00 21.9 4 Norte 11 Nordeste 0 1009.3 -- 46
2020-11-14 13:00:00 20.3 6 Norte 13 Norte 0 1009.9 -- 51
2020-11-14 12:00:00 18.5 0 Calma 8 Sur 0 1010.4 -- 63
2020-11-14 11:00:00 16.4 3 Sudeste 5 Sur 0 1011 -- 61
2020-11-14 10:00:00 -- -- -- -- -- -- -- -- --
2020-11-14 09:00:00 6.8 0 Calma 8 Sudeste 0 1010.7 -- 100
2020-11-14 08:00:00 6.2 7 Sudeste 9 Sudeste 0 1010.2 -- 98
2020-11-14 07:00:00 6.7 5 Sudeste 9 Sur 0 1010.1 -- 98
2020-11-14 06:00:00 6.8 2 Sudeste 7 Sudeste 0 1010.3 -- 99
2020-11-14 05:00:00 7.3 3 Sur 13 Este 0 1010.7 -- 98
2020-11-14 04:00:00 7.5 6 Sudeste 9 Sudeste 0 1011.3 -- 98
2020-11-14 03:00:00 7.8 5 Sudeste 8 Sudeste 0 1011.7 -- 98
2020-11-14 02:00:00 7.6 3 Nordeste 7 Sudeste 0 1012.4 -- 99
2020-11-14 01:00:00 7.5 2 Sudeste 10 Este 0 1012.9 -- 98
2020-11-14 00:00:00 8 6 Sudeste 10 Sudeste 0 1013.1 -- 97
2020-11-13 23:00:00 8.9 4 Nordeste 8 Sudeste 0 1012.9 -- 96
2020-11-13 22:00:00 9.2 6 Sudeste 10 Sudeste 0 1013.1 -- 94
2020-11-13 21:00:00 10 5 Sudeste 9 Este 0 1013.5 -- 92
2020-11-13 20:00:00 11.6 0 Calma 8 Sudeste 0 1013.6 -- 86
2020-11-13 19:00:00 13.8 4 Sudeste 8 Sudeste 0 1013.2 -- 77
2020-11-13 18:00:00 17.4 3 Sudeste 16 Este 0 1013 -- 59
2020-11-13 17:00:00 19.5 9 Este 22 Nordeste 0 1012.8 -- 51
2020-11-13 16:00:00 20.7 9 Este 17 Norte 0 1012.8 -- 50
2020-11-13 15:00:00 18.7 12 Norte 18 Noroeste 0 1013.6 -- 68
2020-11-13 14:00:00 19.4 9 Noroeste 15 Norte 0 1014.1 -- 62
2020-11-13 13:00:00 18.9 6 Noroeste 21 Noroeste 0 1014.8 -- 60
2020-11-13 12:00:00 18.3 6 Noroeste 9 Noroeste 0 1014.5 -- 65
2020-11-13 11:00:00 15.4 0 Calma 5 Sudeste 0 1014.8 -- 78
2020-11-13 10:00:00 10.7 0 Calma 8 Sudeste 0 1015 -- 100
2020-11-13 09:00:00 8.3 4 Sudeste 6 Sudeste 0 1014.7 -- 100
2020-11-13 08:00:00 8.4 2 Noroeste 8 Este 0 1014 -- 100
2020-11-13 07:00:00 8.4 5 Sudeste 7 Sudeste 0 1014.1 -- 99
2020-11-13 06:00:00 8.9 2 Sur 10 Este 0 1014.2 -- 99
2020-11-13 05:00:00 9.6 4 Sudeste 8 Sudeste 0 1014.1 -- 99
2020-11-13 04:00:00 10.5 0 Calma 5 Sudeste 0 1014.1 -- 98
2020-11-13 03:00:00 11 2 Este 6 Sudeste 0 1014 -- 98
2020-11-13 02:00:00 11.2 6 Sudeste 9 Este 0 1013.8 -- 98
2020-11-13 01:00:00 11.3 6 Sudeste 9 Sudeste 0 1014.1 -- 97
2020-11-13 00:00:00 11.5 2 Norte 8 Sudeste 0 1014.2 -- 96
2020-11-12 23:00:00 11.7 4 Sudeste 8 Sudeste 0 1014 -- 96
2020-11-12 22:00:00 11.9 3 Norte 7 Sudeste 0 1014.2 -- 95
2020-11-12 21:00:00 11.9 3 Oeste 9 Sudeste 0 1013.9 -- 94
2020-11-12 20:00:00 12.7 6 Este 8 Sudeste 0 1014 -- 91
2020-11-12 19:00:00 14.4 4 Sudeste 7 Nordeste 0 1014.1 -- 82
2020-11-12 18:00:00 17.9 5 Nordeste 17 Este 0 1013.6 -- 63
2020-11-12 17:00:00 19.8 9 Este 21 Este 0 1013.5 -- 52
2020-11-12 16:00:00 21 12 Este 22 Sudeste 0 1013.6 -- 56
2020-11-12 15:00:00 21.2 12 Este 21 Este 0 1014.3 -- 52
2020-11-12 14:00:00 19.7 7 Norte 14 Norte 0 1015.1 -- 76
2020-11-12 13:00:00 19.1 6 Noroeste 12 Norte 0 1016.1 -- 75
2020-11-12 12:00:00 18.3 5 Noroeste 10 Noroeste 0 1017.1 -- 71
2020-11-12 11:00:00 16.7 5 Oeste 9 Oeste 0 1017.4 -- 80
2020-11-12 10:00:00 14.9 2 Sur 14 Este 0 1017.3 -- 90
2020-11-12 09:00:00 13.9 7 Este 12 Este 0 1017.5 -- 96
2020-11-12 08:00:00 13.3 3 Este 6 Sudeste 0 1017.1 -- 97
2020-11-12 07:00:00 13.1 0 Calma 5 Oeste 0 1016.9 -- 96
2020-11-12 06:00:00 12.9 2 Sudeste 5 Sudeste 0 1016.8 -- 95
2020-11-12 05:00:00 13 3 Sudeste 6 Este 0 1017 -- 94
2020-11-12 04:00:00 13.1 3 Sudeste 5 Oeste 0 1017.5 -- 91
2020-11-12 03:00:00 13.1 0 Calma 8 Sudeste 0 1017.7 -- 89
2020-11-12 02:00:00 13.3 0 Calma 10 Noroeste 0 1017.7 -- 87
2020-11-12 01:00:00 13.2 6 Sudeste 11 Este 0 1017.5 -- 88
2020-11-12 00:00:00 13.6 4 Sudeste 9 Sudeste 0 1016.8 -- 86
2020-11-11 23:00:00 13.9 5 Noroeste 11 Oeste 0 1016.8 -- 84
2020-11-11 22:00:00 13.8 4 Este 11 Oeste 0 1016.5 -- 86
2020-11-11 21:00:00 13.9 4 Sudoeste 12 Sudeste 0 1016.3 -- 89
2020-11-11 20:00:00 13.6 6 Sudeste 11 Sudeste 0 1015.7 -- 91
2020-11-11 19:00:00 14.6 3 Oeste 6 Noroeste 0 1015.7 -- 83
2020-11-11 18:00:00 15.6 4 Sudoeste 10 Sudoeste 0 1014.9 -- 77
2020-11-11 17:00:00 17.3 2 Oeste 11 Este 0 1014.6 -- 69
2020-11-11 16:00:00 18 3 Norte 11 Norte 0 1014.6 -- 62
2020-11-11 15:00:00 19.3 3 Nordeste 14 Norte 0 1014.5 -- 52
2020-11-11 14:00:00 20.3 9 Noroeste 14 Noroeste 0 1014.8 -- 48
2020-11-11 13:00:00 18.7 4 Norte 7 Norte 0 1015.7 -- 61
2020-11-11 12:00:00 16.3 0 Calma 4 Este 0 1017 -- 69
2020-11-11 11:00:00 12.8 0 Calma 6 Sudeste 0 1016.9 -- 87
2020-11-11 10:00:00 9.3 2 Este 9 Sudeste 0 1017.2 -- 100
2020-11-11 09:00:00 6.7 6 Sudeste 8 Sudeste 0 1017.6 -- 100
2020-11-11 08:00:00 6.2 5 Sudeste 10 Sudeste 0 1017.8 -- 100
2020-11-11 07:00:00 6.2 4 Sudeste 10 Sudeste 0 1018.1 -- 100
2020-11-11 06:00:00 6.5 4 Este 8 Sudeste 0 1018.6 -- 100
2020-11-11 05:00:00 6.9 4 Este 8 Sudeste 0 1019.1 -- 100
2020-11-11 04:00:00 7.4 4 Sudeste 7 Sudeste 0 1019.7 -- 99
2020-11-11 03:00:00 7.9 4 Sudeste 8 Sudeste 0 1020.1 -- 99
2020-11-11 02:00:00 8.2 3 Sudeste 5 Sudeste 0 1020.5 -- 99
2020-11-11 01:00:00 8.8 3 Sur 7 Sudeste 0 1021.1 -- 99
2020-11-11 00:00:00 9.2 0 Calma 10 Sudeste 0 1022.2 -- 99
2020-11-10 23:00:00 9.7 2 Sudeste 6 Sudeste 0 1022.7 -- 98
2020-11-10 22:00:00 9.9 5 Sudeste 8 Sudeste 0 1022.7 -- 98
2020-11-10 21:00:00 10.3 3 Sudeste 8 Sudeste 0 1022.5 -- 97
2020-11-10 20:00:00 11.1 4 Sudeste 6 Sudeste 0 1022.9 -- 94
2020-11-10 19:00:00 13 2 Noroeste 10 Este 0 1022.9 -- 89
2020-11-10 18:00:00 14.4 4 Sudeste 12 Este 0 1022.7 -- 84
2020-11-10 17:00:00 15.3 5 Nordeste 15 Este 0 1023.2 -- 78
2020-11-10 16:00:00 15.8 7 Nordeste 17 Norte 0 1023.1 -- 74
2020-11-10 15:00:00 16.3 10 Norte 17 Nordeste 0 1023 -- 68
2020-11-10 14:00:00 16.9 11 Norte 16 Norte 0 1023.4 -- 59
2020-11-10 13:00:00 17 6 Nordeste 13 Norte 0 1024.2 -- 62
2020-11-10 12:00:00 16.1 4 Nordeste 8 Norte 0 1024.7 -- 72
2020-11-10 11:00:00 13.4 3 Noroeste 6 Noroeste 0 1024.8 -- 95
2020-11-10 10:00:00 10.7 4 Sudeste 6 Sudeste 0 1024.9 -- 100
2020-11-10 09:00:00 8.6 0 Calma 5 Sudeste 0 1024.6 -- 100
2020-11-10 08:00:00 7.8 4 Sudeste 5 Sudeste 0 1023.6 -- 99
2020-11-10 07:00:00 8.5 4 Sudeste 6 Sudeste 0 1023.1 -- 99
2020-11-10 06:00:00 9.7 0 Calma 5 Sudeste 0 1022.9 -- 99
2020-11-10 05:00:00 10.7 4 Sudeste 5 Sudeste 0 1022.9 -- 99
2020-11-10 04:00:00 11.1 4 Sudeste 5 Sudeste 0 1023.2 -- 99
2020-11-10 03:00:00 11.2 3 Sudeste 7 Sudeste 0 1022.9 -- 99
2020-11-10 02:00:00 12 4 Sudeste 5 Sudeste 0 1022.5 -- 97
2020-11-10 01:00:00 13 0 Calma 4 Sudeste 0 1022.6 -- 98
2020-11-10 00:00:00 13.2 4 Sudeste 6 Sur 0 1022.5 -- 97
2020-11-09 23:00:00 13.5 3 Sudeste 6 Sudeste 0 1022.4 -- 96
2020-11-09 22:00:00 13.8 3 Sudeste 5 Sudeste 0 1022.1 -- 95
2020-11-09 21:00:00 14.1 3 Sudeste 5 Sur 0 1021.5 -- 94
2020-11-09 20:00:00 15.1 2 Norte 12 Noroeste 0 1021.3 -- 88
2020-11-09 19:00:00 15.5 0 Calma 7 Sudoeste 0.2 1020.4 -- 91
2020-11-09 18:00:00 16.1 3 Noroeste 6 Norte 0 1019.2 -- 85
2020-11-09 17:00:00 17 4 Nordeste 6 Nordeste 0 1018.5 -- 79
2020-11-09 16:00:00 17.5 3 Norte 6 Noroeste 0 1017.9 -- 78
2020-11-09 15:00:00 16.9 2 Noroeste 9 Sur 0 1017.7 -- 82
2020-11-09 14:00:00 16.3 3 Este 10 Norte 0.2 1017.5 -- 79
2020-11-09 13:00:00 16.6 8 Noroeste 12 Norte 0 1017.6 -- 74
2020-11-09 12:00:00 17 5 Norte 10 Noroeste 0 1017.3 -- 75
2020-11-09 11:00:00 16.4 2 Sudeste 5 Sudeste 0 1016.7 -- 77
2020-11-09 10:00:00 14 3 Noroeste 5 Sudeste 0 1016.6 -- 84
2020-11-09 09:00:00 12 3 Sudeste 9 Este 0 1015.8 -- 89
2020-11-09 08:00:00 10 6 Sudeste 12 Sudeste 0 1015.2 -- 98
2020-11-09 07:00:00 8.7 5 Sudeste 9 Sudeste 0 1014.1 -- 98
2020-11-09 06:00:00 8.8 5 Sudeste 9 Este 0 1013.6 -- 97
2020-11-09 05:00:00 9.3 2 Norte 6 Sudeste 0 1013.3 -- 96
2020-11-09 04:00:00 9.2 0 Calma 9 Sudeste 0 1013.2 -- 96
2020-11-09 03:00:00 9.2 4 Este 10 Sudeste 0 1013 -- 95
2020-11-09 02:00:00 9.9 4 Este 10 Sudeste 0 1012.6 -- 92
2020-11-09 01:00:00 10.1 4 Sudeste 9 Este 0 1012.7 -- 90
2020-11-09 00:00:00 11 7 Sudeste 10 Sudeste 0 1012.7 -- 86
2020-11-08 23:00:00 13.3 4 Este 12 Noroeste 0 1012.4 -- 73
2020-11-08 22:00:00 15.5 3 Noroeste 9 Sudeste 0 1011.8 -- 61
2020-11-08 21:00:00 17.5 3 Sur 16 Sur 0 1011.4 -- 50
2020-11-08 20:00:00 17.9 6 Sur 22 Sur 0 1011 -- 50
2020-11-08 19:00:00 18.1 8 Sudeste 17 Sudeste 0 1011 -- 51
2020-11-08 18:00:00 19.5 6 Sur 22 Sur 0 1010.2 -- 47
2020-11-08 17:00:00 20.9 6 Sur 16 Sur 0 1010 -- 47
2020-11-08 16:00:00 20.1 5 Norte 9 Nordeste 0 1009.8 -- 63
2020-11-08 15:00:00 18.8 3 Sudeste 8 Este 0 1010.3 -- 63
2020-11-08 14:00:00 17.2 3 Nordeste 14 Norte 0 1010.8 -- 68
2020-11-08 13:00:00 17.2 12 Norte 33 Norte 0 1011.4 -- 74
2020-11-08 12:00:00 21.6 10 Sur 28 Sur 0 1011.4 -- 45
2020-11-08 11:00:00 20.7 4 Sudeste 20 Este 0 1011.8 -- 52
2020-11-08 10:00:00 19.8 9 Sudeste 21 Este 0 1011.8 -- 53
2020-11-08 09:00:00 17.1 9 Sudeste 25 Sudeste 0 1011.8 -- 58
2020-11-08 08:00:00 12.9 3 Sudoeste 13 Este 0 1012 -- 80
2020-11-08 07:00:00 13.5 5 Sur 13 Sur 0 1011.5 -- 76
2020-11-08 06:00:00 12.4 2 Sur 10 Sur 0 1011.8 -- 88
2020-11-08 05:00:00 10.2 0 Calma 10 Sudeste 0 1012.1 -- 96
2020-11-08 04:00:00 9.7 4 Oeste 9 Sudeste 0 1012.6 -- 98
2020-11-08 03:00:00 9.4 3 Sur 8 Sur 0 1012.7 -- 98
2020-11-08 02:00:00 9.6 3 Norte 8 Norte 0 1012.8 -- 98
2020-11-08 01:00:00 9.3 3 Sudeste 7 Sudeste 0 1013.1 -- 98
2020-11-08 00:00:00 9.9 2 Oeste 7 Este 0 1013.1 -- 97
2020-11-07 23:00:00 10.8 4 Sudeste 8 Sudeste 0 1013.2 -- 96
2020-11-07 22:00:00 12 5 Sudeste 8 Sudeste 0 1012.9 -- 95
2020-11-07 21:00:00 13.6 4 Sudeste 8 Sudeste 0 1012.7 -- 93
2020-11-07 20:00:00 15.4 3 Sudeste 7 Sudeste 0 1012.3 -- 86
2020-11-07 19:00:00 16.4 4 Este 12 Este 0 1011.5 -- 77
2020-11-07 18:00:00 17.5 5 Este 10 Este 0 1010.9 -- 69
2020-11-07 17:00:00 19.1 6 Este 11 Nordeste 0 1010.3 -- 62
2020-11-07 16:00:00 20.4 5 Nordeste 16 Norte 0 1009.8 -- 58
2020-11-07 15:00:00 20.3 7 Nordeste 17 Norte 0 1009.6 -- 59
2020-11-07 14:00:00 20.2 8 Nordeste 18 Norte 0 1009.6 -- 60
2020-11-07 13:00:00 19.6 6 Norte 10 Norte 0 1009.4 -- 63
2020-11-07 12:00:00 17.9 6 Noroeste 9 Oeste 0 1009.7 -- 80
2020-11-07 11:00:00 14.7 3 Nordeste 8 Norte 0 1009.3 -- 97
2020-11-07 10:00:00 12.6 0 Calma 6 Sudeste 0 1008.6 -- 99
2020-11-07 09:00:00 12 4 Este 8 Sudeste 0 1008 -- 99
2020-11-07 08:00:00 12.2 5 Sudeste 10 Este 0 1007 -- 98
2020-11-07 07:00:00 12.9 2 Este 7 Sudeste 0 1007 -- 98
2020-11-07 06:00:00 12.9 5 Sudeste 8 Sudeste 0 1006.8 -- 98
2020-11-07 05:00:00 12.8 4 Sudeste 8 Sudeste 0 1006.8 -- 97
2020-11-07 04:00:00 13.4 4 Este 8 Sudeste 0 1006.6 -- 96
2020-11-07 03:00:00 14 4 Sudeste 8 Sudeste 0.2 1007 -- 95
2020-11-07 02:00:00 14.8 4 Sudeste 13 Oeste 0 1006.8 -- 89
2020-11-07 01:00:00 15.8 6 Oeste 15 Oeste 0 1006.5 -- 82
2020-11-07 00:00:00 14.5 7 Sudeste 14 Sur 0 1004.9 -- 86
2020-11-06 23:00:00 16.5 4 Sudoeste 36 Sur 1.6 1005.3 -- 76
2020-11-06 22:00:00 19 12 Sudeste 32 Sur 0.8 1006.4 -- 70
2020-11-06 21:00:00 18.2 5 Sudeste 17 Sudoeste 0 1004.5 -- 71
2020-11-06 20:00:00 16.6 0 Calma 8 Sudoeste 0 1004.3 -- 79
2020-11-06 19:00:00 17.5 3 Oeste 5 Sudeste 0 1004.1 -- 74
2020-11-06 18:00:00 19.8 3 Sudeste 14 Sudeste 0 1004.4 -- 62
2020-11-06 17:00:00 22.3 10 Sudeste 18 Sudeste 0 1004.6 -- 48
2020-11-06 16:00:00 22 6 Sudeste 15 Este 0 1005.6 -- 55
2020-11-06 15:00:00 22.9 10 Este 24 Este 0 1006.1 -- 50
2020-11-06 14:00:00 24.8 13 Este 24 Este 0 1006.7 -- 39
2020-11-06 13:00:00 23.6 11 Este 25 Este 0 1008.2 -- 45
2020-11-06 12:00:00 22.3 9 Este 19 Este 0 1009.9 -- 51
2020-11-06 11:00:00 19.4 3 Sudeste 10 Sudeste 0 1010.6 0.8 61
2020-11-06 10:00:00 14.1 4 Oeste 10 Oeste 0 1010.5 -- 85
2020-11-06 09:00:00 12 4 Sur 9 Sur 0 1010.5 -- 91
2020-11-06 08:00:00 12.7 6 Noroeste 15 Sudeste 0 1009.8 -- 83
2020-11-06 07:00:00 10 6 Norte 14 Este 0 1010.1 -- 96
2020-11-06 06:00:00 9.3 8 Noroeste 18 Noroeste 0 1010.4 -- 100
2020-11-06 05:00:00 8.1 5 Sudeste 9 Sudeste 0 1010.6 -- 99
2020-11-06 04:00:00 8.4 5 Sudeste 6 Sudeste 0 1010.9 -- 98
2020-11-06 03:00:00 8.9 5 Sudeste 6 Sudeste 0 1011.6 -- 98
2020-11-06 02:00:00 9.3 3 Sudeste 9 Sur 0 1012.2 -- 98
2020-11-06 01:00:00 8.9 2 Sudeste 10 Este 0 1012.6 -- 99
2020-11-06 00:00:00 8.5 0 Calma 6 Sudeste 0 1013.1 -- 98
2020-11-05 23:00:00 9 0 Calma 6 Este 0 1013.8 -- 97
2020-11-05 22:00:00 9.5 3 Sudeste 5 Sudeste 0 1014.3 -- 96
2020-11-05 21:00:00 10 3 Sudeste 6 Sudeste 0 1015.1 -- 95
2020-11-05 20:00:00 11 4 Este 6 Sudeste 0 1015.5 -- 92
2020-11-05 19:00:00 12.3 4 Sudeste 5 Este 0 1016.1 -- 88
2020-11-05 18:00:00 13.8 3 Sudeste 11 Sur 0 1016.2 -- 80
2020-11-05 17:00:00 14.2 5 Este 25 Este 0 1016.7 -- 78
2020-11-05 16:00:00 14.3 13 Este 36 Este 0 1016.8 -- 75
2020-11-05 15:00:00 14.2 6 Este 34 Este 0 1017.3 -- 75
2020-11-05 14:00:00 13.8 14 Este 34 Sudeste 0 1017.9 -- 73
2020-11-05 13:00:00 13.5 12 Este 36 Este 0 1018.9 -- 72
2020-11-05 12:00:00 14.2 21 Este 49 Este 0 1019.7 -- 67
2020-11-05 11:00:00 13.4 20 Este 49 Este 0 1020.6 -- 70
2020-11-05 10:00:00 13 18 Este 36 Este 0 1021 -- 71
2020-11-05 09:00:00 11.5 14 Este 34 Este 0 1021 -- 76
2020-11-05 08:00:00 11.1 8 Este 29 Este 0 1021.2 -- 77
2020-11-05 07:00:00 11.3 14 Este 30 Este 0 1021.1 -- 76
2020-11-05 06:00:00 11.3 12 Este 24 Nordeste 0 1021.4 -- 76
2020-11-05 05:00:00 11.1 12 Este 28 Este 0 1021.6 -- 73
2020-11-05 04:00:00 11.4 8 Este 35 Este 0 1022.2 -- 72
2020-11-05 03:00:00 11.7 13 Este 30 Sudeste 0 1022.5 -- 70
2020-11-05 02:00:00 11.4 7 Este 24 Nordeste 0 1022.8 -- 72
2020-11-05 01:00:00 11.6 13 Este -- -- -- 1023 -- 69
2020-11-05 00:00:00 -- -- -- -- -- -- -- -- --
2020-11-04 23:00:00 10.4 13 Este 33 Este 0 1023.3 -- 82
2020-11-04 22:00:00 10 14 Este 30 Este 0.2 1023.1 -- 84
2020-11-04 21:00:00 9.9 9 Este 34 Este 1.8 1023.1 -- 86
2020-11-04 20:00:00 10.1 12 Este 40 Este 0.8 1022.6 -- 83
2020-11-04 19:00:00 12.1 14 Este 35 Este 0.2 1021.8 -- 73
2020-11-04 18:00:00 11.9 13 Este 30 Este 0 1021.6 -- 70
2020-11-04 17:00:00 12.4 12 Este 26 Este 0 1021.6 -- 68
2020-11-04 16:00:00 12.7 9 Nordeste 29 Este 0 1021.5 -- 74
2020-11-04 15:00:00 13.7 9 Nordeste 25 Nordeste 0 1021.7 -- 68
2020-11-04 14:00:00 11.5 3 Sur 12 Nordeste 1.2 1022.3 -- 87
2020-11-04 13:00:00 10.6 11 Este 23 Este 1.6 1023.7 -- 82
2020-11-04 12:00:00 12.7 2 Sur 8 Noroeste 0 1023.4 -- 67
2020-11-04 11:00:00 10.9 2 Sudoeste 4 Sudoeste 0 1023.6 0.3 85
2020-11-04 10:00:00 8 4 Norte 5 Nordeste 0 1024 -- 98
2020-11-04 09:00:00 7.5 0 Calma 3 Sur 0 1023.5 -- 98
2020-11-04 08:00:00 7.8 0 Calma 7 Sur 0 1023.3 -- 96
2020-11-04 07:00:00 8.1 4 Este 10 Este 0 1023.9 -- 93
2020-11-04 06:00:00 7.9 5 Oeste 14 Sur 0 1024.1 -- 94
2020-11-04 05:00:00 7.6 0 Calma 6 Sur 0.2 1024.6 -- 98
2020-11-04 04:00:00 7.3 4 Sudeste 12 Norte 1.2 1025.4 -- 98
2020-11-04 03:00:00 6.7 5 Sur 8 Norte 0 1026.2 -- 99
2020-11-04 02:00:00 5.5 3 Sudeste 5 Sudeste 0 1026.7 -- 98
2020-11-04 01:00:00 6 0 Calma 7 Norte 0 1027.4 -- 96
2020-11-04 00:00:00 6.9 3 Sur 9 Oeste 0 1028 -- 95
2020-11-03 23:00:00 8.2 0 Calma 5 Sur 0 1029 -- 93
2020-11-03 22:00:00 9.5 3 Norte 13 Oeste 0 1029.6 -- 87
2020-11-03 21:00:00 9.4 9 Oeste 15 Oeste 0 1029.9 -- 87
2020-11-03 20:00:00 9.7 3 Este 7 Sudeste 0 1029.8 -- 88
2020-11-03 19:00:00 10.5 5 Sudeste 15 Norte 0 1029.8 -- 83
2020-11-03 18:00:00 12 3 Noroeste 16 Oeste 0 1029.9 -- 66
2020-11-03 17:00:00 13.2 10 Noroeste 20 Noroeste 0 1030 -- 61
2020-11-03 16:00:00 13.6 9 Noroeste 20 Norte 0 1030 -- 59
2020-11-03 15:00:00 13.9 11 Noroeste 21 Norte 0 1029.9 -- 63
2020-11-03 14:00:00 13.9 10 Noroeste 20 Noroeste 0 1030.3 -- 59
2020-11-03 13:00:00 13.5 7 Oeste 14 Oeste 0 1030.6 -- 72
2020-11-03 12:00:00 12.8 4 Sudoeste 13 Sudeste 0 1030.6 -- 82
2020-11-03 11:00:00 11.7 4 Sur 15 Sur 0 1030.4 -- 93
2020-11-03 10:00:00 10.7 8 Sudoeste 17 Sudoeste 0.2 1029.9 -- 97
2020-11-03 09:00:00 10.2 6 Sur 14 Sudoeste 0.8 1028.8 -- 98
2020-11-03 08:00:00 10.1 6 Sur 16 Sudoeste 1.4 1027.7 -- 98
2020-11-03 07:00:00 10.3 6 Sudoeste 13 Sudoeste 0.4 1027.4 -- 95
2020-11-03 06:00:00 9.1 3 Sudoeste 6 Sudoeste 0 1026.6 -- 100
2020-11-03 05:00:00 8.1 0 Calma 5 Nordeste 0 1026 -- 99
2020-11-03 04:00:00 8.5 0 Calma 4 Sur 0 1025.9 -- 98
2020-11-03 03:00:00 9.6 2 Norte 5 Noroeste 0 1025.7 -- 96
2020-11-03 02:00:00 10.9 3 Sur 8 Sudoeste 0 1025.2 -- 95
2020-11-03 01:00:00 11.8 3 Sur 8 Sur 0 1024.9 -- 95
2020-11-03 00:00:00 11.9 2 Sur 9 Sudeste 0 1024.8 -- 96
2020-11-02 23:00:00 11.9 6 Sur 14 Sur 0.2 1024.4 -- 96
2020-11-02 22:00:00 11.7 4 Sudeste 11 Sur 0.2 1024.1 -- 97
2020-11-02 21:00:00 12 4 Oeste 9 Noroeste 0 1024 -- 95
2020-11-02 20:00:00 11.8 2 Sur 10 Sur 0 1023.2 -- 96
2020-11-02 19:00:00 11.7 5 Sudeste 12 Sur 0 1022.8 -- 96
2020-11-02 18:00:00 12 4 Sudeste 13 Oeste 0.6 1022.3 -- 97
2020-11-02 17:00:00 12.3 15 Noroeste 28 Norte 1.4 1022.1 -- 95
2020-11-02 16:00:00 13.4 6 Oeste 14 Oeste 2 1021.6 -- 94
2020-11-02 15:00:00 14.2 7 Oeste 15 Noroeste 0 1021 -- 88
2020-11-02 14:00:00 14.2 7 Oeste 27 Oeste 0 1021 -- 86
2020-11-02 13:00:00 15.2 10 Oeste 32 Noroeste 0 1020.3 -- 88
2020-11-02 12:00:00 16.2 13 Oeste 36 Noroeste 0 1019.2 -- 88
2020-11-02 11:00:00 17.5 21 Noroeste 40 Noroeste 0 1017.6 -- 87
2020-11-02 10:00:00 18 3 Noroeste 9 Oeste 0 1015.4 -- 76
2020-11-02 09:00:00 14.3 5 Norte 13 Sur 0 1014.2 -- 97
2020-11-02 08:00:00 11.9 5 Sur 12 Sur 0 1014.2 -- 100
2020-11-02 07:00:00 12.2 4 Norte 14 Noroeste 0 1014.7 -- 100
2020-11-02 06:00:00 11.7 5 Sur 10 Sudeste 0 1015 -- 100
2020-11-02 05:00:00 11.2 4 Sudeste 6 Sudeste 0 1015 -- 99
2020-11-02 04:00:00 11.5 5 Sudeste 8 Sudeste 0 1014.7 -- 100
2020-11-02 03:00:00 11.6 6 Sudeste 10 Sudeste 0 1014.8 -- 100
2020-11-02 02:00:00 11.9 3 Noroeste 6 Sudeste 0 1014.6 -- 99
2020-11-02 01:00:00 12.4 0 Calma 7 Sudeste 0 1014.7 -- 98
2020-11-02 00:00:00 12.8 5 Sudeste 8 Este 0 1014.7 -- 98